OIAH  Gachsaran  Airport

Gachsaran, Iran

Add Bookmark
ICAO OIAH
Type Airport
Status Operational
Latitude
30° 20' 15" N
30.337601
Longitude
50° 49' 40" E
50.827999
Local (GMT +4.5 ) UTC
May 3, 2016 01:17 pm May 3, 2016 08:47
Sunrise-Sunset Local UTC
Begin Civil Twilight 05:54 am 01:24
Sunrise 06:19 am 01:49
Sunset 07:47 pm 15:17
End Civil Twilight 08:12 pm 15:42
VFR
VFR
MVFR
MVFR
IFR
IFR
LIFR
LIFR
Unknown
Unavailable

Current Weather

METAR Observed VFR
OIAH 030800Z 00000KT CAVOK 35/02 Q1013 Tue, May 3, 2016 @ 08:00 UTC
(47 Minutes ago)
Visual Flight Rules
Wind Visibility Conditions
Calm 10 km or more
  • No significant weather
Temperatures Readings Precipitation
Current Temp
35°C
95°F
Dewpoint
2°C
36°F
Humidity 12%
Altimeter 29.91" Hg
Sea Level Pressure 1,013 mb
Field Elevation
738 m
2,421 ft
None Recorded

Additional weather within a 92.6km radius of OIAH

Map ICAO Location
OISY 79.6km E/NE (059°)
VFR
VFR
MVFR
MVFR
IFR
IFR
LIFR
LIFR
Unknown
Unavailable
-
-

CheckWX.com is intended as a tool to help pilots better visualize weather data. It is not intended as a substitute for an official weather briefing obtained from a Flight Service Station. CheckWX.com does not meet the FAA requirements for an official pre-flight weather briefing. Therefore, it's important that pilots still call and obtain an official FSS pre-flight weather briefing.

© 2007-2016 CheckWX.com
08:47:06 UTC